createdAt,value
2018-09-24T00:00:03.954Z,0.80
2018-09-24T00:02:37.546Z,0.80
2018-09-24T00:05:08.586Z,0.67
2018-09-24T00:07:39.272Z,0.70
2018-09-24T00:10:08.764Z,0.60
2018-09-24T00:12:38.586Z,0.80
2018-09-24T00:15:08.847Z,0.70
2018-09-24T00:17:38.733Z,0.80
2018-09-24T00:20:09.602Z,0.97
2018-09-24T00:22:39.888Z,1.30
2018-09-24T00:25:13.306Z,0.90
2018-09-24T00:27:43.252Z,0.97
2018-09-24T00:30:12.528Z,0.90
2018-09-24T00:32:45.050Z,0.80
2018-09-24T00:35:18.061Z,0.80
2018-09-24T00:37:50.912Z,0.80
2018-09-24T00:40:21.571Z,0.90
2018-09-24T00:42:50.706Z,0.90
2018-09-24T00:45:23.278Z,0.90
2018-09-24T00:47:55.526Z,1.00
2018-09-24T00:50:28.412Z,1.10
2018-09-24T00:52:57.706Z,1.00
2018-09-24T00:55:31.588Z,0.90
2018-09-24T00:58:01.517Z,1.10
2018-09-24T01:00:33.720Z,1.00
2018-09-24T01:03:05.478Z,0.80
2018-09-24T01:05:37.442Z,0.93
2018-09-24T01:08:09.278Z,1.00
2018-09-24T01:10:40.620Z,0.93
2018-09-24T01:13:11.174Z,0.90
2018-09-24T01:15:42.358Z,0.90
2018-09-24T01:18:14.835Z,1.07
2018-09-24T01:20:46.775Z,0.80
2018-09-24T01:23:16.625Z,1.00
2018-09-24T01:25:48.061Z,0.80
2018-09-24T01:28:19.056Z,0.80
2018-09-24T01:30:49.553Z,0.80
2018-09-24T01:33:19.031Z,0.90
2018-09-24T01:35:49.412Z,0.80
2018-09-24T01:38:21.822Z,0.90
2018-09-24T01:40:54.212Z,0.90
2018-09-24T01:43:24.074Z,0.80
2018-09-24T01:45:58.029Z,0.80
2018-09-24T01:48:29.874Z,0.90
2018-09-24T01:51:01.704Z,0.80
2018-09-24T01:53:33.578Z,1.03
2018-09-24T01:56:02.862Z,0.87
2018-09-24T01:58:36.541Z,1.00
2018-09-24T02:01:07.205Z,0.97
2018-09-24T02:03:37.356Z,1.00
2018-09-24T02:06:07.773Z,0.80
2018-09-24T02:08:45.020Z,0.90
2018-09-24T02:11:16.180Z,1.00
2018-09-24T02:13:52.838Z,1.00
2018-09-24T02:16:24.996Z,0.90
2018-09-24T02:19:01.880Z,0.80
2018-09-24T02:21:31.488Z,0.80
2018-09-24T02:24:04.483Z,0.80
2018-09-24T02:26:33.670Z,0.90
2018-09-24T02:29:02.985Z,0.90
2018-09-24T02:31:39.708Z,0.90
2018-09-24T02:34:12.643Z,0.93
2018-09-24T02:36:44.621Z,0.80
2018-09-24T02:39:14.751Z,0.93
2018-09-24T02:41:48.054Z,0.80
2018-09-24T02:44:17.828Z,0.83
2018-09-24T02:46:48.657Z,0.80
2018-09-24T02:49:17.931Z,0.70
2018-09-24T02:51:48.233Z,0.80
2018-09-24T02:54:18.595Z,0.70
2018-09-24T02:56:52.071Z,1.00
2018-09-24T02:59:23.511Z,0.80
2018-09-24T03:01:58.529Z,0.80
2018-09-24T03:04:32.194Z,0.83
2018-09-24T03:07:02.036Z,1.00
2018-09-24T03:09:31.369Z,0.90
2018-09-24T03:12:03.687Z,0.90
2018-09-24T03:14:36.417Z,1.00
2018-09-24T03:17:06.348Z,1.10
2018-09-24T03:19:37.323Z,1.00
2018-09-24T03:22:06.435Z,1.00
2018-09-24T03:24:36.320Z,0.90
2018-09-24T03:27:06.693Z,1.00
2018-09-24T03:29:38.063Z,1.17
2018-09-24T03:32:10.830Z,1.20
2018-09-24T03:34:44.937Z,1.20
2018-09-24T03:37:14.471Z,1.10
2018-09-24T03:39:44.316Z,1.10
2018-09-24T03:42:14.064Z,1.10
2018-09-24T03:44:43.259Z,1.73
2018-09-24T03:47:14.558Z,1.20
2018-09-24T03:49:45.434Z,1.23
2018-09-24T03:52:20.191Z,1.17
2018-09-24T03:54:49.749Z,1.17
2018-09-24T03:57:20.346Z,1.20
2018-09-24T03:59:50.334Z,1.20
2018-09-24T04:02:21.931Z,1.00
2018-09-24T04:05:01.911Z,1.50
2018-09-24T04:07:40.636Z,1.30
2018-09-24T04:10:18.298Z,1.20
2018-09-24T04:12:54.274Z,1.47
2018-09-24T04:15:29.571Z,1.40
2018-09-24T04:18:09.339Z,4.23
2018-09-24T04:20:46.220Z,1.57
2018-09-24T04:23:21.081Z,1.10
2018-09-24T04:25:59.433Z,1.30
2018-09-24T04:28:33.955Z,1.33
2018-09-24T04:31:08.259Z,1.47
2018-09-24T04:33:46.097Z,1.33
2018-09-24T04:36:25.264Z,1.43
2018-09-24T04:39:00.059Z,1.33
2018-09-24T04:41:37.954Z,1.13
2018-09-24T04:44:13.389Z,1.60
2018-09-24T04:46:47.908Z,1.87
2018-09-24T04:49:26.895Z,1.23
2018-09-24T04:52:02.500Z,1.30
2018-09-24T04:54:40.443Z,1.23
2018-09-24T04:57:15.148Z,1.50
2018-09-24T04:59:50.467Z,1.70
2018-09-24T05:02:28.948Z,1.50
2018-09-24T05:05:03.923Z,1.13
2018-09-24T05:07:41.151Z,1.30
2018-09-24T05:10:16.966Z,1.70
2018-09-24T05:12:51.658Z,1.20
2018-09-24T05:15:29.254Z,1.10
2018-09-24T05:18:07.732Z,1.37
2018-09-24T05:20:43.155Z,1.53
2018-09-24T05:23:17.616Z,1.80
2018-09-24T05:25:55.647Z,1.67
2018-09-24T05:28:32.596Z,1.57
2018-09-24T05:31:07.080Z,1.20
2018-09-24T05:33:42.446Z,1.60
2018-09-24T05:36:19.608Z,1.53
2018-09-24T05:38:55.331Z,1.40
2018-09-24T05:41:34.034Z,1.50
2018-09-24T05:44:10.826Z,1.50
2018-09-24T05:46:49.398Z,1.40
2018-09-24T05:49:26.258Z,1.40
2018-09-24T05:52:03.005Z,1.20
2018-09-24T05:54:39.789Z,1.40
2018-09-24T05:57:15.401Z,1.80
2018-09-24T05:59:50.892Z,1.20
2018-09-24T06:02:26.466Z,1.57
2018-09-24T06:05:03.994Z,1.37
2018-09-24T06:07:38.377Z,2.13
2018-09-24T06:10:15.180Z,2.40
2018-09-24T06:12:49.620Z,1.57
2018-09-24T06:15:30.649Z,1.40
2018-09-24T06:18:10.703Z,1.83
2018-09-24T06:20:47.416Z,1.70
2018-09-24T06:23:23.998Z,1.83
2018-09-24T06:26:04.501Z,1.50
2018-09-24T06:28:40.932Z,1.50
2018-09-24T06:31:16.366Z,1.47
2018-09-24T06:33:55.954Z,1.50
2018-09-24T06:36:36.806Z,1.80
2018-09-24T06:39:14.828Z,1.33
2018-09-24T06:41:52.594Z,1.60
2018-09-24T06:44:32.486Z,1.60
2018-09-24T06:47:09.129Z,3.60
2018-09-24T06:49:45.668Z,2.20
2018-09-24T06:52:19.925Z,2.10
2018-09-24T06:54:58.650Z,1.47
2018-09-24T06:57:34.621Z,2.00
2018-09-24T07:00:10.253Z,1.60
2018-09-24T07:02:47.627Z,1.60
2018-09-24T07:05:22.171Z,1.50
2018-09-24T07:07:58.088Z,1.80
2018-09-24T07:10:35.798Z,1.40
2018-09-24T07:13:10.917Z,1.40
2018-09-24T07:15:47.509Z,2.03
2018-09-24T07:18:23.159Z,2.10
2018-09-24T07:21:03.329Z,1.40
2018-09-24T07:23:39.250Z,1.70
2018-09-24T07:26:14.001Z,4.40
2018-09-24T07:28:50.568Z,2.10
2018-09-24T07:31:30.316Z,1.60
2018-09-24T07:34:06.111Z,1.50
2018-09-24T07:36:44.143Z,1.63
2018-09-24T07:39:21.518Z,1.40
2018-09-24T07:42:00.096Z,1.80
2018-09-24T07:44:34.387Z,1.60
2018-09-24T07:47:12.663Z,1.80
2018-09-24T07:49:48.295Z,1.43
2018-09-24T07:52:25.667Z,1.77
2018-09-24T07:55:01.369Z,2.10
2018-09-24T07:57:37.289Z,1.53
2018-09-24T08:00:16.180Z,1.40
2018-09-24T08:02:52.403Z,1.60
2018-09-24T08:05:29.218Z,2.07
2018-09-24T08:08:06.123Z,1.90
2018-09-24T08:10:42.047Z,2.20
2018-09-24T08:13:21.136Z,1.50
2018-09-24T08:15:55.519Z,2.00
2018-09-24T08:18:32.845Z,1.57
2018-09-24T08:21:08.386Z,1.70
2018-09-24T08:23:44.288Z,1.87
2018-09-24T08:26:21.411Z,1.60
2018-09-24T08:28:59.002Z,1.50
2018-09-24T08:31:35.862Z,1.50
2018-09-24T08:34:11.383Z,1.80
2018-09-24T08:36:47.027Z,1.83
2018-09-24T08:39:23.911Z,1.80
2018-09-24T08:41:58.744Z,1.40
2018-09-24T08:44:37.254Z,1.70
2018-09-24T08:47:15.451Z,1.60
2018-09-24T08:49:54.095Z,1.33
2018-09-24T08:52:31.178Z,1.80
2018-09-24T08:55:05.509Z,1.70
2018-09-24T08:57:46.456Z,1.67
2018-09-24T09:00:21.661Z,1.80
2018-09-24T09:02:59.746Z,1.87
2018-09-24T09:05:36.174Z,1.70
2018-09-24T09:08:13.570Z,1.50
2018-09-24T09:10:47.774Z,1.67
2018-09-24T09:13:23.832Z,1.60
2018-09-24T09:16:04.311Z,1.43
2018-09-24T09:18:39.967Z,1.77
2018-09-24T09:21:14.936Z,1.70
2018-09-24T09:23:49.948Z,1.50
2018-09-24T09:26:29.153Z,1.70
2018-09-24T09:29:06.695Z,2.40
2018-09-24T09:31:41.539Z,2.07
2018-09-24T09:34:18.060Z,2.23
2018-09-24T09:36:52.842Z,1.53
2018-09-24T09:39:29.411Z,1.60
2018-09-24T09:42:07.098Z,1.83
2018-09-24T09:44:43.834Z,2.53
2018-09-24T09:47:19.955Z,2.03
2018-09-24T09:49:56.578Z,1.33
2018-09-24T09:52:31.666Z,1.40
2018-09-24T09:55:07.207Z,1.60
2018-09-24T09:57:43.239Z,1.93
2018-09-24T10:00:20.667Z,1.50
2018-09-24T10:02:59.489Z,1.33
2018-09-24T10:05:36.095Z,1.80
2018-09-24T10:08:15.871Z,1.93
2018-09-24T10:10:53.880Z,1.90
2018-09-24T10:13:29.409Z,2.00
2018-09-24T10:16:06.099Z,1.63
2018-09-24T10:18:41.987Z,1.97
2018-09-24T10:21:17.519Z,1.93
2018-09-24T10:23:52.187Z,2.10
2018-09-24T10:26:31.061Z,1.60
2018-09-24T10:29:08.506Z,1.70
2018-09-24T10:31:45.942Z,1.50
2018-09-24T10:34:22.919Z,1.20
2018-09-24T10:36:59.479Z,1.43
2018-09-24T10:42:36.923Z,1.70
2018-09-24T10:45:11.915Z,1.47
2018-09-24T10:47:46.603Z,1.50
2018-09-24T10:50:20.993Z,1.73
2018-09-24T10:52:55.403Z,1.60
2018-09-24T10:55:30.400Z,1.40
2018-09-24T10:58:04.856Z,1.60
2018-09-24T11:00:40.792Z,1.37
2018-09-24T11:03:15.714Z,1.67
2018-09-24T11:05:50.169Z,1.57
2018-09-24T11:08:25.110Z,1.60
2018-09-24T11:10:59.797Z,1.73
2018-09-24T11:13:34.356Z,1.47
2018-09-24T11:16:09.219Z,1.80
2018-09-24T11:18:43.613Z,2.00
2018-09-24T11:21:18.439Z,1.80
2018-09-24T11:23:53.036Z,1.73
2018-09-24T11:29:02.995Z,1.90
2018-09-24T11:31:37.762Z,1.67
2018-09-24T11:34:12.958Z,1.30
2018-09-24T11:36:47.756Z,1.20
2018-09-24T11:39:22.203Z,1.70
2018-09-24T11:41:56.903Z,1.63
2018-09-24T11:44:31.687Z,1.37
2018-09-24T11:47:06.597Z,1.80
2018-09-24T11:49:41.017Z,1.47
2018-09-24T11:52:15.859Z,1.30
2018-09-24T11:54:51.330Z,1.50
2018-09-24T11:57:25.982Z,1.40
2018-09-24T12:00:00.684Z,1.60
2018-09-24T12:02:35.404Z,1.50
2018-09-24T12:05:09.988Z,1.43
2018-09-24T12:07:44.777Z,2.27
2018-09-24T12:10:20.148Z,1.97
2018-09-24T12:12:54.727Z,1.63
2018-09-24T12:15:29.671Z,2.27
2018-09-24T12:18:04.445Z,1.30
2018-09-24T12:20:39.175Z,1.50
2018-09-24T12:23:13.925Z,1.80
2018-09-24T12:25:48.750Z,1.47
2018-09-24T12:28:23.549Z,1.30
2018-09-24T12:30:58.376Z,1.10
2018-09-24T12:33:33.404Z,1.30
2018-09-24T12:36:07.906Z,2.40
2018-09-24T12:41:29.584Z,1.80
2018-09-24T12:44:04.972Z,1.80
2018-09-24T12:46:39.681Z,1.57
2018-09-24T12:49:14.208Z,1.57
2018-09-24T12:51:49.088Z,1.60
2018-09-24T12:54:24.438Z,2.03
2018-09-24T12:56:59.312Z,1.97
2018-09-24T12:59:34.178Z,1.57
2018-09-24T13:02:09.386Z,1.80
2018-09-24T13:04:44.379Z,2.20
2018-09-24T13:07:19.098Z,2.07
2018-09-24T13:09:53.543Z,1.57
2018-09-24T13:12:28.346Z,2.27
2018-09-24T13:15:04.502Z,1.87
2018-09-24T13:17:40.372Z,1.50
2018-09-24T13:20:15.713Z,2.27
2018-09-24T13:22:50.549Z,1.90
2018-09-24T13:25:26.589Z,2.07
2018-09-24T13:28:04.702Z,2.10
2018-09-24T13:30:39.205Z,1.70
2018-09-24T13:33:13.783Z,1.43
2018-09-24T13:35:49.612Z,1.30
2018-09-24T13:38:24.914Z,1.37
2018-09-24T13:41:00.888Z,1.73
2018-09-24T13:43:36.054Z,1.70
2018-09-24T13:46:10.874Z,2.33
2018-09-24T13:48:46.178Z,1.80
2018-09-24T13:51:22.572Z,1.90
2018-09-24T13:53:58.930Z,1.57
2018-09-24T13:56:33.731Z,1.73
2018-09-24T13:59:08.729Z,1.60
2018-09-24T14:01:44.289Z,1.60
2018-09-24T14:04:20.558Z,1.70
2018-09-24T14:06:55.690Z,1.50
2018-09-24T14:09:30.387Z,2.10
2018-09-24T14:12:05.280Z,2.63
2018-09-24T14:27:37.746Z,1.97
2018-09-24T14:30:12.397Z,2.03
2018-09-24T14:32:47.038Z,1.67
2018-09-24T14:35:21.831Z,1.70
2018-09-24T14:37:56.513Z,1.67
2018-09-24T14:40:32.242Z,1.53
2018-09-24T14:43:06.872Z,2.00
2018-09-24T14:45:41.473Z,1.53
2018-09-24T14:48:16.536Z,1.67
2018-09-24T14:50:50.967Z,1.20
2018-09-24T14:53:25.928Z,1.50
2018-09-24T14:56:07.511Z,2.60
2018-09-24T14:58:42.332Z,1.50
2018-09-24T15:01:17.269Z,1.53
2018-09-24T15:03:52.338Z,1.30
2018-09-24T15:06:27.254Z,1.70
2018-09-24T15:09:02.551Z,1.60
2018-09-24T15:11:37.639Z,1.30
2018-09-24T15:14:12.948Z,1.40
2018-09-24T15:16:47.433Z,1.47
2018-09-24T15:19:23.531Z,1.80
2018-09-24T15:21:58.437Z,1.77
2018-09-24T15:24:33.943Z,1.80
2018-09-24T15:27:09.499Z,1.70
2018-09-24T15:29:44.261Z,1.60
2018-09-24T15:32:18.850Z,2.10
2018-09-24T15:34:54.555Z,1.50
2018-09-24T15:37:30.097Z,1.73
2018-09-24T15:40:05.016Z,1.60
2018-09-24T15:42:40.475Z,1.73
2018-09-24T15:45:15.605Z,1.57
2018-09-24T15:47:51.224Z,1.80
2018-09-24T15:50:26.099Z,1.50
2018-09-24T15:53:01.575Z,1.63
2018-09-24T15:55:36.609Z,1.50
2018-09-24T15:58:13.152Z,1.77
2018-09-24T16:00:48.029Z,1.60
2018-09-24T16:03:23.480Z,1.47
2018-09-24T16:05:58.457Z,1.37
2018-09-24T16:08:33.721Z,1.57
2018-09-24T16:11:10.364Z,1.43
2018-09-24T16:13:45.183Z,1.50
2018-09-24T16:16:20.504Z,1.80
2018-09-24T16:18:55.230Z,1.50
2018-09-24T16:21:30.243Z,1.23
2018-09-24T16:24:06.393Z,1.60
2018-09-24T16:26:41.909Z,1.40
2018-09-24T16:29:18.445Z,2.37
2018-09-24T16:31:54.058Z,1.60
2018-09-24T16:34:29.098Z,2.40
2018-09-24T16:37:04.740Z,2.20
2018-09-24T16:39:40.184Z,3.03
2018-09-24T16:42:15.101Z,2.50
2018-09-24T16:44:51.658Z,2.50
2018-09-24T16:47:26.158Z,2.50
2018-09-24T16:50:01.876Z,2.00
2018-09-24T16:52:36.434Z,1.80
2018-09-24T16:55:10.903Z,1.80
2018-09-24T16:57:46.371Z,1.60
2018-09-24T17:00:20.952Z,1.60
2018-09-24T17:02:56.976Z,1.90
2018-09-24T17:05:31.428Z,1.90
2018-09-24T17:08:07.274Z,1.60
2018-09-24T17:10:41.645Z,1.70
2018-09-24T17:13:16.290Z,1.30
2018-09-24T17:15:50.944Z,1.60
2018-09-24T17:18:25.461Z,2.10
2018-09-24T17:21:01.222Z,1.80
2018-09-24T17:23:37.255Z,1.60
2018-09-24T17:26:11.765Z,1.90
2018-09-24T17:28:47.158Z,2.00
2018-09-24T17:31:21.986Z,1.60
2018-09-24T17:33:57.986Z,1.93
2018-09-24T17:36:33.305Z,2.10
2018-09-24T17:39:09.259Z,2.37
2018-09-24T17:41:44.086Z,2.00
2018-09-24T17:44:18.718Z,2.67
2018-09-24T17:46:55.106Z,1.97
2018-09-24T17:49:29.718Z,1.73
2018-09-24T17:52:06.463Z,1.87
2018-09-24T17:54:41.581Z,2.60
2018-09-24T17:57:16.285Z,2.00
2018-09-24T17:59:51.011Z,2.33
2018-09-24T18:02:26.214Z,2.30
2018-09-24T18:05:00.966Z,2.63
2018-09-24T18:07:35.866Z,2.33
2018-09-24T18:10:10.899Z,2.10
2018-09-24T18:12:46.097Z,2.30
2018-09-24T18:15:21.073Z,2.03
2018-09-24T18:17:57.001Z,2.20
2018-09-24T18:20:33.691Z,2.10
2018-09-24T18:23:09.581Z,2.33
2018-09-24T18:25:45.083Z,2.33
2018-09-24T18:28:19.910Z,2.10
2018-09-24T18:30:55.943Z,2.30
2018-09-24T18:33:32.890Z,2.20
2018-09-24T18:36:07.800Z,2.13
2018-09-24T18:38:42.674Z,1.90
2018-09-24T18:41:18.210Z,2.00
2018-09-24T18:43:54.999Z,1.83
2018-09-24T18:46:30.063Z,2.30
2018-09-24T18:49:05.385Z,2.67
2018-09-24T18:51:41.172Z,3.30
2018-09-24T18:54:19.776Z,3.70
2018-09-24T18:56:54.898Z,3.90
2018-09-24T18:59:30.029Z,4.30
2018-09-24T19:02:05.605Z,4.10
2018-09-24T19:04:40.813Z,3.73
2018-09-24T19:07:21.133Z,3.43
2018-09-24T19:09:55.782Z,3.80
2018-09-24T19:12:31.693Z,3.87
2018-09-24T19:15:06.800Z,4.13
2018-09-24T19:17:41.785Z,3.60
2018-09-24T19:20:16.785Z,3.27
2018-09-24T19:22:51.970Z,3.00
2018-09-24T19:25:27.220Z,3.43
2018-09-24T19:28:02.992Z,4.57
2018-09-24T19:30:39.963Z,3.70
2018-09-24T19:33:17.896Z,3.47
2018-09-24T19:35:55.533Z,3.90
2018-09-24T19:38:34.239Z,2.77
2018-09-24T19:41:09.782Z,2.67
2018-09-24T19:43:46.773Z,2.50
2018-09-24T19:46:22.311Z,2.07
2018-09-24T19:48:58.906Z,2.40
2018-09-24T19:51:34.889Z,2.30
2018-09-24T19:54:10.542Z,2.43
2018-09-24T19:56:45.776Z,2.20
2018-09-24T19:59:20.999Z,2.50
2018-09-24T20:01:55.885Z,2.50
2018-09-24T20:04:31.101Z,2.30
2018-09-24T20:07:06.588Z,2.53
2018-09-24T20:09:42.312Z,3.13
2018-09-24T20:12:16.964Z,3.00
2018-09-24T20:14:51.744Z,3.50
2018-09-24T20:17:27.187Z,3.10
2018-09-24T20:20:01.829Z,2.97
2018-09-24T20:22:37.835Z,2.97
2018-09-24T20:25:13.761Z,2.57
2018-09-24T20:27:48.404Z,2.60
2018-09-24T20:30:23.405Z,2.57
2018-09-24T20:33:00.382Z,2.03
2018-09-24T20:35:35.121Z,2.33
2018-09-24T20:38:11.413Z,2.10
2018-09-24T20:40:47.021Z,2.60
2018-09-24T20:43:21.535Z,2.60
2018-09-24T20:45:58.984Z,3.30
2018-09-24T20:48:34.177Z,2.47
2018-09-24T20:51:08.812Z,2.70
2018-09-24T20:53:44.678Z,2.60
2018-09-24T20:56:19.290Z,2.60
2018-09-24T20:58:54.704Z,2.80
2018-09-24T21:01:29.908Z,2.80
2018-09-24T21:04:05.585Z,2.60
2018-09-24T21:06:42.105Z,2.73
2018-09-24T21:09:16.655Z,2.57
2018-09-24T21:11:51.847Z,2.57
2018-09-24T21:14:27.970Z,2.73
2018-09-24T21:17:02.815Z,2.80
2018-09-24T21:19:38.170Z,2.27
2018-09-24T21:22:13.009Z,3.30
2018-09-24T21:24:49.041Z,2.73
2018-09-24T21:27:25.226Z,2.97
2018-09-24T21:30:00.294Z,2.40
2018-09-24T21:32:35.642Z,3.00
2018-09-24T21:35:10.319Z,2.60
2018-09-24T21:37:45.849Z,2.60
2018-09-24T21:40:21.351Z,2.67
2018-09-24T21:42:57.534Z,2.83
2018-09-24T21:45:33.045Z,2.63
2018-09-24T21:48:07.887Z,2.23
2018-09-24T21:50:42.509Z,3.13
2018-09-24T21:53:17.493Z,2.60
2018-09-24T21:55:52.646Z,2.40
2018-09-24T21:58:28.981Z,2.30
2018-09-24T22:01:04.100Z,2.60
2018-09-24T22:03:39.317Z,2.93
2018-09-24T22:06:14.165Z,2.40
2018-09-24T22:08:48.949Z,2.60
2018-09-24T22:11:26.646Z,2.50
2018-09-24T22:14:02.595Z,2.70
2018-09-24T22:16:37.595Z,2.70
2018-09-24T22:19:12.200Z,2.63
2018-09-24T22:21:48.259Z,2.67
2018-09-24T22:24:22.828Z,3.00
2018-09-24T22:27:00.515Z,3.00
2018-09-24T22:29:35.526Z,2.27
2018-09-24T22:32:11.099Z,2.90
2018-09-24T22:34:45.695Z,2.40
2018-09-24T22:37:21.543Z,2.30
2018-09-24T22:39:58.205Z,2.60
2018-09-24T22:42:33.057Z,2.90
2018-09-24T22:45:08.623Z,2.50
2018-09-24T22:47:43.233Z,2.10
2018-09-24T22:50:19.186Z,2.30
2018-09-24T22:52:55.047Z,2.53
2018-09-24T22:55:29.486Z,2.53
2018-09-24T22:58:04.411Z,2.47
2018-09-24T23:00:38.915Z,2.27
2018-09-24T23:03:13.691Z,2.43
2018-09-24T23:05:48.223Z,2.47
2018-09-24T23:08:22.874Z,2.37
2018-09-24T23:10:57.364Z,2.67
2018-09-24T23:13:31.925Z,2.93
2018-09-24T23:16:06.325Z,2.30
2018-09-24T23:18:40.796Z,2.73
2018-09-24T23:21:15.613Z,2.90
2018-09-24T23:23:51.132Z,2.67
2018-09-24T23:26:25.989Z,2.97
2018-09-24T23:29:01.400Z,2.50
2018-09-24T23:31:35.973Z,2.20
2018-09-24T23:34:10.855Z,2.30
2018-09-24T23:36:45.987Z,2.63
2018-09-24T23:39:22.329Z,2.30
2018-09-24T23:42:00.300Z,2.60
2018-09-24T23:44:35.279Z,2.47
2018-09-24T23:47:12.682Z,2.40
2018-09-24T23:49:47.336Z,2.40
2018-09-24T23:52:22.309Z,2.10
2018-09-24T23:54:57.597Z,2.60
2018-09-24T23:57:32.300Z,2.00
